Time;durP1;ratioP1;P1;durP2;ratioP2;P2;SDS_P1;SDS_P2;PMS_P1;PMS_P2;Temp;Humidity;BMP_temperature;BMP_pressure;BME280_temperature;BME280_humidity;BME280_pressure;Samples;Min_cycle;Max_cycle;Signal;HPM_P1;HPM_P2
2023/06/22 00:01:02;;;;;;;;;;;17.40;99.90;;;;;;5072149;28;19924;-88
2023/06/22 00:03:27;;;;;;;;;;;17.40;99.90;;;;;;5073334;28;19931;-86
2023/06/22 00:05:53;;;;;;;;;;;17.30;99.90;;;;;;5055368;28;19928;-86
2023/06/22 00:08:19;;;;;;;;;;;17.30;99.90;;;;;;5073890;28;19925;-86
2023/06/22 00:10:45;;;;;;;;;;;17.30;99.90;;;;;;5075504;28;19925;-86
2023/06/22 00:13:11;;;;;;;;;;;17.30;99.90;;;;;;5076745;28;19924;-86
2023/06/22 00:15:38;;;;;;;;;;;17.20;99.90;;;;;;5076834;28;19924;-86
2023/06/22 00:18:04;;;;;;;;;;;17.20;99.90;;;;;;5075782;28;19935;-86
2023/06/22 00:20:30;;;;;;;;;;;17.20;99.90;;;;;;5075475;28;20043;-86
2023/06/22 00:22:56;;;;;;;;;;;17.20;99.90;;;;;;5076577;28;19968;-86
2023/06/22 00:25:22;;;;;;;;;;;17.20;99.90;;;;;;5076497;28;20028;-87
2023/06/22 00:27:48;;;;;;;;;;;17.10;99.90;;;;;;5076655;28;19928;-86
2023/06/22 00:30:15;;;;;;;;;;;17.20;99.90;;;;;;5075583;28;19928;-87
2023/06/22 00:32:40;;;;;;;;;;;17.10;99.90;;;;;;5076235;28;19924;-86
2023/06/22 00:35:07;;;;;;;;;;;17.10;99.90;;;;;;5074990;28;19990;-86
2023/06/22 00:37:32;;;;;;;;;;;17.10;99.90;;;;;;5075536;28;20367;-86
2023/06/22 00:39:58;;;;;;;;;;;17.20;99.90;;;;;;5074825;28;19978;-86
2023/06/22 00:42:24;;;;;;;;;;;17.20;99.90;;;;;;5058536;28;19937;-86
2023/06/22 00:44:50;;;;;;;;;;;17.20;99.90;;;;;;5076251;28;19928;-86
2023/06/22 00:47:17;;;;;;;;;;;17.20;99.90;;;;;;5076742;28;20378;-86
2023/06/22 00:49:43;;;;;;;;;;;17.20;99.90;;;;;;5076250;28;20397;-86
2023/06/22 00:52:13;;;;;;;;;;;17.20;99.90;;;;;;5058574;28;20018;-87
2023/06/22 00:54:45;;;;;;;;;;;17.20;99.90;;;;;;5076651;28;19931;-86
2023/06/22 00:57:12;;;;;;;;;;;17.20;99.90;;;;;;5076286;28;20421;-86
2023/06/22 00:59:39;;;;;;;;;;;17.20;99.90;;;;;;5058626;28;19924;-87
2023/06/22 01:02:05;;;;;;;;;;;17.20;99.90;;;;;;5076601;28;19931;-86
2023/06/22 01:04:35;;;;;;;;;;;17.20;99.90;;;;;;5074938;28;19967;-86
2023/06/22 01:07:07;;;;;;;;;;;17.20;99.90;;;;;;5076405;28;19976;-86
2023/06/22 01:09:35;;;;;;;;;;;17.10;99.90;;;;;;5076033;28;19925;-86
2023/06/22 01:12:02;;;;;;;;;;;17.10;99.90;;;;;;5074620;28;19924;-87
2023/06/22 01:14:32;;;;;;;;;;;17.10;99.90;;;;;;5075107;28;19947;-86
2023/06/22 01:16:59;;;;;;;;;;;17.10;99.90;;;;;;5075728;28;19978;-86
2023/06/22 01:19:32;;;;;;;;;;;17.10;99.90;;;;;;5073509;28;19928;-86
2023/06/22 01:21:59;;;;;;;;;;;17.10;99.90;;;;;;5075519;28;19975;-86
2023/06/22 01:24:48;;;;;;;;;;;17.10;99.90;;;;;;5075377;28;19929;-86
2023/06/22 01:27:46;;;;;;;;;;;17.10;99.90;;;;;;5063254;28;20341;-88
2023/06/22 01:30:13;;;;;;;;;;;17.00;99.90;;;;;;5030138;28;19931;-86
2023/06/22 01:32:40;;;;;;;;;;;17.00;99.90;;;;;;5075010;28;19978;-87
2023/06/22 01:35:06;;;;;;;;;;;17.00;99.90;;;;;;5074949;28;19947;-86
2023/06/22 01:37:34;;;;;;;;;;;17.00;99.90;;;;;;5074148;28;19924;-86
2023/06/22 01:40:00;;;;;;;;;;;16.90;99.90;;;;;;5074175;28;19983;-86
2023/06/22 01:42:25;;;;;;;;;;;17.00;99.90;;;;;;5075024;28;19981;-87
2023/06/22 01:44:52;;;;;;;;;;;16.90;99.90;;;;;;5073282;28;20291;-87
2023/06/22 01:47:18;;;;;;;;;;;16.90;99.90;;;;;;5073795;28;20371;-86
2023/06/22 01:49:43;;;;;;;;;;;17.00;99.90;;;;;;5074933;28;19958;-85
2023/06/22 01:52:09;;;;;;;;;;;16.90;99.90;;;;;;5074005;28;20012;-85
2023/06/22 01:54:36;;;;;;;;;;;16.80;99.90;;;;;;5073850;28;19980;-86
2023/06/22 01:57:02;;;;;;;;;;;16.80;99.90;;;;;;5074810;28;19925;-86
2023/06/22 01:59:27;;;;;;;;;;;16.80;99.90;;;;;;5074615;28;20362;-86
2023/06/22 02:01:57;;;;;;;;;;;16.70;99.90;;;;;;5073706;28;19978;-86
2023/06/22 02:04:26;;;;;;;;;;;16.80;99.90;;;;;;5074864;28;20005;-87
2023/06/22 02:06:55;;;;;;;;;;;16.80;99.90;;;;;;5074440;28;20007;-86
2023/06/22 02:09:22;;;;;;;;;;;16.80;99.90;;;;;;5074469;28;20329;-87
2023/06/22 02:11:48;;;;;;;;;;;16.80;99.90;;;;;;5073546;28;20414;-86
2023/06/22 02:14:14;;;;;;;;;;;16.80;99.90;;;;;;5073948;28;19928;-87
2023/06/22 02:16:40;;;;;;;;;;;16.70;99.90;;;;;;5073485;28;19924;-86
2023/06/22 02:19:06;;;;;;;;;;;16.70;99.90;;;;;;5074982;28;20029;-86
2023/06/22 02:21:32;;;;;;;;;;;16.60;99.90;;;;;;5057023;28;19925;-86
2023/06/22 02:23:58;;;;;;;;;;;16.60;99.90;;;;;;5074117;28;19932;-86
2023/06/22 02:26:24;;;;;;;;;;;16.50;99.90;;;;;;5074796;28;19936;-87
2023/06/22 02:28:50;;;;;;;;;;;16.50;99.90;;;;;;5074115;28;19969;-86
2023/06/22 02:31:15;;;;;;;;;;;16.50;99.90;;;;;;5072253;28;19929;-86
2023/06/22 02:33:41;;;;;;;;;;;16.50;99.90;;;;;;5073922;28;19924;-85
2023/06/22 02:36:08;;;;;;;;;;;16.50;99.90;;;;;;5056789;28;19940;-86
2023/06/22 02:38:35;;;;;;;;;;;16.50;99.90;;;;;;5073694;28;19975;-87
2023/06/22 02:41:01;;;;;;;;;;;16.50;99.90;;;;;;5072842;28;19924;-85
2023/06/22 02:43:27;;;;;;;;;;;16.50;99.90;;;;;;5055754;28;20321;-86
2023/06/22 02:45:53;;;;;;;;;;;16.50;99.90;;;;;;5073364;28;19924;-85
2023/06/22 02:48:18;;;;;;;;;;;16.40;99.90;;;;;;5073445;28;19931;-86
2023/06/22 02:50:44;;;;;;;;;;;16.40;99.90;;;;;;5073120;28;19924;-85
2023/06/22 02:53:09;;;;;;;;;;;16.40;99.90;;;;;;5072531;28;19924;-86
2023/06/22 02:55:35;;;;;;;;;;;16.40;99.90;;;;;;5072305;28;19932;-86
2023/06/22 02:58:04;;;;;;;;;;;16.40;99.90;;;;;;5072231;28;19985;-85
2023/06/22 03:00:30;;;;;;;;;;;16.40;99.90;;;;;;5072622;28;19932;-86
2023/06/22 03:02:57;;;;;;;;;;;16.30;99.90;;;;;;5055808;28;19928;-86
2023/06/22 03:05:22;;;;;;;;;;;16.30;99.90;;;;;;5072380;28;19925;-86
2023/06/22 03:07:48;;;;;;;;;;;16.30;99.90;;;;;;5073274;28;20008;-86
2023/06/22 03:10:14;;;;;;;;;;;16.30;99.90;;;;;;5073358;28;19932;-86
2023/06/22 03:12:40;;;;;;;;;;;16.30;99.90;;;;;;5072134;28;19940;-86
2023/06/22 03:15:06;;;;;;;;;;;16.30;99.90;;;;;;5072630;28;19932;-86
2023/06/22 03:22:46;;;;;;;;;;;16.40;99.90;;;;;;4530006;26;19932;-84
2023/06/22 03:25:14;;;;;;;;;;;16.30;99.90;;;;;;5109221;28;19923;-78
2023/06/22 03:27:40;;;;;;;;;;;16.30;99.90;;;;;;5114039;28;19966;-78
2023/06/22 03:30:07;;;;;;;;;;;16.30;99.90;;;;;;5115370;28;19932;-78
2023/06/22 03:32:32;;;;;;;;;;;16.30;99.90;;;;;;5114772;22;20062;-88
2023/06/22 03:34:58;;;;;;;;;;;16.20;99.90;;;;;;5036748;28;19972;-89
2023/06/22 03:37:27;;;;;;;;;;;16.20;99.90;;;;;;5015305;28;19996;-89
2023/06/22 03:39:53;;;;;;;;;;;16.20;99.90;;;;;;5034246;28;19925;-89
2023/06/22 03:42:18;;;;;;;;;;;16.20;99.90;;;;;;5036111;28;19984;-89
2023/06/22 03:44:44;;;;;;;;;;;16.20;99.90;;;;;;5029449;28;20018;-89
2023/06/22 03:47:10;;;;;;;;;;;16.10;99.90;;;;;;5040765;28;20323;-89
2023/06/22 03:49:35;;;;;;;;;;;16.20;99.90;;;;;;5037504;28;19924;-88
2023/06/22 03:52:04;;;;;;;;;;;16.20;99.90;;;;;;5027448;28;19944;-90
2023/06/22 03:54:30;;;;;;;;;;;16.20;99.90;;;;;;5038311;28;19925;-89
2023/06/22 03:56:58;;;;;;;;;;;16.20;99.90;;;;;;5018444;28;20517;-90
2023/06/22 03:59:24;;;;;;;;;;;16.30;99.90;;;;;;5030381;28;20027;-89
2023/06/22 04:01:50;;;;;;;;;;;16.30;99.90;;;;;;5022335;28;19960;-89
2023/06/22 04:04:16;;;;;;;;;;;16.40;99.90;;;;;;5024986;28;19932;-89
2023/06/22 04:06:41;;;;;;;;;;;16.30;99.90;;;;;;5019605;28;19933;-89
2023/06/22 04:09:07;;;;;;;;;;;16.40;99.90;;;;;;5041627;28;19924;-89
2023/06/22 04:11:32;;;;;;;;;;;16.40;99.90;;;;;;5023056;28;21268;-90
2023/06/22 04:13:58;;;;;;;;;;;16.40;99.90;;;;;;5037921;28;19929;-89
2023/06/22 04:16:23;;;;;;;;;;;16.40;99.90;;;;;;5025065;28;19936;-90
2023/06/22 04:18:49;;;;;;;;;;;16.40;99.90;;;;;;5044864;28;19928;-90
2023/06/22 04:21:14;;;;;;;;;;;16.40;99.90;;;;;;5027237;28;19976;-90
2023/06/22 04:23:40;;;;;;;;;;;16.40;99.90;;;;;;5043158;28;19925;-89
2023/06/22 04:26:06;;;;;;;;;;;16.40;99.90;;;;;;5025390;28;19928;-89
2023/06/22 04:28:34;;;;;;;;;;;16.50;99.90;;;;;;5036381;28;19929;-89
2023/06/22 04:31:02;;;;;;;;;;;16.50;99.90;;;;;;5037943;28;19935;-89
2023/06/22 04:33:29;;;;;;;;;;;16.50;99.90;;;;;;5040361;28;19928;-89
2023/06/22 04:35:56;;;;;;;;;;;16.50;99.90;;;;;;5034987;28;19936;-89
2023/06/22 04:38:22;;;;;;;;;;;16.60;99.90;;;;;;5021678;28;19940;-89
2023/06/22 04:40:48;;;;;;;;;;;16.60;99.90;;;;;;5017832;28;20104;-89
2023/06/22 04:43:14;;;;;;;;;;;16.60;99.90;;;;;;5034305;28;20015;-89
2023/06/22 04:45:39;;;;;;;;;;;16.70;99.90;;;;;;5012201;28;19947;-88
2023/06/22 04:48:05;;;;;;;;;;;16.80;99.90;;;;;;5038660;28;20315;-90
2023/06/22 04:50:31;;;;;;;;;;;16.80;99.90;;;;;;5040465;28;19951;-90
2023/06/22 04:52:56;;;;;;;;;;;16.90;99.90;;;;;;5022616;28;19929;-90
2023/06/22 04:55:22;;;;;;;;;;;17.00;99.90;;;;;;5023710;28;20008;-89
2023/06/22 04:57:51;;;;;;;;;;;17.00;99.90;;;;;;5055929;28;19925;-90
2023/06/22 05:00:18;;;;;;;;;;;17.10;99.90;;;;;;5036970;28;19925;-89
2023/06/22 05:02:45;;;;;;;;;;;17.20;99.90;;;;;;5037719;28;19968;-90
2023/06/22 05:05:13;;;;;;;;;;;17.40;99.90;;;;;;5036998;28;19928;-89
2023/06/22 05:07:47;;;;;;;;;;;17.50;99.90;;;;;;5038534;28;19964;-89
2023/06/22 05:10:13;;;;;;;;;;;17.70;99.90;;;;;;5022050;28;19952;-89
2023/06/22 05:12:39;;;;;;;;;;;17.80;99.90;;;;;;5037191;28;19951;-88
2023/06/22 05:15:05;;;;;;;;;;;18.10;99.90;;;;;;5014206;28;19924;-88
2023/06/22 05:17:31;;;;;;;;;;;18.40;99.90;;;;;;5005595;28;20019;-88
2023/06/22 05:19:57;;;;;;;;;;;18.70;99.90;;;;;;5009132;28;20669;-89
2023/06/22 05:22:22;;;;;;;;;;;19.10;99.90;;;;;;5034601;28;19929;-88
2023/06/22 05:24:48;;;;;;;;;;;19.50;99.90;;;;;;5022256;28;19992;-89
2023/06/22 05:27:14;;;;;;;;;;;19.90;99.90;;;;;;5018574;28;19929;-89
2023/06/22 05:29:39;;;;;;;;;;;20.20;99.90;;;;;;5037236;28;19940;-88
2023/06/22 05:32:05;;;;;;;;;;;20.60;99.90;;;;;;5033873;28;19928;-88
2023/06/22 05:34:31;;;;;;;;;;;20.80;99.90;;;;;;5036356;28;20078;-87
2023/06/22 05:36:58;;;;;;;;;;;21.00;99.90;;;;;;5034833;28;19984;-88
2023/06/22 05:39:25;;;;;;;;;;;21.20;99.90;;;;;;5027768;28;19928;-88
2023/06/22 05:41:50;;;;;;;;;;;21.50;99.90;;;;;;5036449;28;19932;-88
2023/06/22 05:44:16;;;;;;;;;;;21.60;99.90;;;;;;5033776;28;19924;-87
2023/06/22 05:46:46;;;;;;;;;;;21.70;99.90;;;;;;5022561;28;20449;-89
2023/06/22 05:49:12;;;;;;;;;;;21.80;99.90;;;;;;5020744;28;19928;-88
2023/06/22 05:51:39;;;;;;;;;;;21.90;99.90;;;;;;5038709;28;19929;-88
2023/06/22 05:54:04;;;;;;;;;;;22.00;99.90;;;;;;5020173;28;20342;-87
2023/06/22 05:56:30;;;;;;;;;;;21.90;99.90;;;;;;5012219;28;19924;-87
2023/06/22 05:58:55;;;;;;;;;;;21.80;99.90;;;;;;5032418;28;19933;-87
2023/06/22 06:01:21;;;;;;;;;;;22.10;99.90;;;;;;5028738;28;19975;-87
2023/06/22 06:03:49;;;;;;;;;;;22.30;99.90;;;;;;5039492;28;19928;-85
2023/06/22 06:06:15;;;;;;;;;;;22.50;99.90;;;;;;5035250;28;19929;-85
2023/06/22 06:08:40;;;;;;;;;;;22.70;99.90;;;;;;5045240;28;19948;-84
2023/06/22 06:11:06;;;;;;;;;;;22.90;99.90;;;;;;5043530;28;19979;-84
2023/06/22 06:13:31;;;;;;;;;;;23.10;99.90;;;;;;5026565;28;20287;-85
2023/06/22 06:15:57;;;;;;;;;;;23.20;99.90;;;;;;5038318;28;20256;-85
2023/06/22 06:18:23;;;;;;;;;;;23.20;99.90;;;;;;5037513;28;19936;-84
2023/06/22 06:20:48;;;;;;;;;;;23.30;99.90;;;;;;5018334;28;19929;-85
2023/06/22 06:23:14;;;;;;;;;;;23.20;99.90;;;;;;5020767;28;19981;-85
2023/06/22 06:25:40;;;;;;;;;;;23.10;99.90;;;;;;5021324;28;19929;-85
2023/06/22 06:28:05;;;;;;;;;;;22.80;99.90;;;;;;5038266;28;19971;-85
2023/06/22 06:30:31;;;;;;;;;;;22.80;99.90;;;;;;5018422;28;19999;-85
2023/06/22 06:32:57;;;;;;;;;;;22.80;99.90;;;;;;5035498;28;19925;-84
2023/06/22 06:35:22;;;;;;;;;;;22.90;99.90;;;;;;5017960;28;20481;-85
2023/06/22 06:37:49;;;;;;;;;;;23.00;99.90;;;;;;5014054;28;19961;-84
2023/06/22 06:40:15;;;;;;;;;;;23.10;99.90;;;;;;4997953;28;20395;-85
2023/06/22 06:42:44;;;;;;;;;;;23.30;99.90;;;;;;4997936;28;19933;-85
2023/06/22 06:45:10;;;;;;;;;;;23.60;99.90;;;;;;5010429;28;19933;-85
2023/06/22 06:47:36;;;;;;;;;;;24.00;99.90;;;;;;4990481;28;20383;-84
2023/06/22 06:50:02;;;;;;;;;;;24.00;99.90;;;;;;4996231;28;19985;-84
2023/06/22 06:52:27;;;;;;;;;;;24.00;99.90;;;;;;5011830;28;19926;-83
2023/06/22 06:54:53;;;;;;;;;;;24.10;99.90;;;;;;4979559;28;19932;-84
2023/06/22 06:57:20;;;;;;;;;;;24.10;99.90;;;;;;5008805;28;20908;-85
2023/06/22 06:59:46;;;;;;;;;;;24.10;99.90;;;;;;5016262;28;20289;-84
2023/06/22 07:02:11;;;;;;;;;;;24.10;99.90;;;;;;4992780;28;19933;-85
2023/06/22 07:04:37;;;;;;;;;;;24.10;99.90;;;;;;5008811;28;19933;-83
2023/06/22 07:07:03;;;;;;;;;;;24.10;99.90;;;;;;5012586;28;19929;-84
2023/06/22 07:09:28;;;;;;;;;;;24.30;99.90;;;;;;4996991;28;19936;-83
2023/06/22 07:11:54;;;;;;;;;;;24.50;99.90;;;;;;5013186;28;19956;-85
2023/06/22 07:14:19;;;;;;;;;;;24.70;99.90;;;;;;5012468;28;19972;-84
2023/06/22 07:16:45;;;;;;;;;;;25.00;99.90;;;;;;4995040;28;19975;-85
2023/06/22 07:19:13;;;;;;;;;;;25.20;99.90;;;;;;5011659;28;19937;-85
2023/06/22 07:21:39;;;;;;;;;;;25.40;99.90;;;;;;5004529;28;21842;-85
2023/06/22 07:24:05;;;;;;;;;;;25.50;99.90;;;;;;4986973;28;19972;-84
2023/06/22 07:26:31;;;;;;;;;;;25.60;99.90;;;;;;4994823;28;19929;-84
2023/06/22 07:28:57;;;;;;;;;;;25.80;99.90;;;;;;5014019;28;19926;-84
2023/06/22 07:31:24;;;;;;;;;;;25.90;99.90;;;;;;5010834;28;20328;-83
2023/06/22 07:33:49;;;;;;;;;;;26.10;99.90;;;;;;5010674;28;20304;-85
2023/06/22 07:36:16;;;;;;;;;;;26.30;99.90;;;;;;5011842;28;19929;-83
2023/06/22 07:38:41;;;;;;;;;;;26.50;99.90;;;;;;5029519;28;19933;-84
2023/06/22 07:41:07;;;;;;;;;;;26.60;99.90;;;;;;5029296;28;20003;-85
2023/06/22 07:43:34;;;;;;;;;;;26.60;99.90;;;;;;5013681;28;19921;-84
2023/06/22 07:45:59;;;;;;;;;;;26.70;99.90;;;;;;5028517;28;20367;-83
2023/06/22 07:48:25;;;;;;;;;;;27.00;99.90;;;;;;5024521;28;20419;-82
2023/06/22 07:50:53;;;;;;;;;;;27.10;99.90;;;;;;5013927;28;19939;-83
2023/06/22 07:53:18;;;;;;;;;;;27.30;99.90;;;;;;5025145;28;20184;-84
2023/06/22 07:55:44;;;;;;;;;;;27.30;99.90;;;;;;5026951;28;19926;-84
2023/06/22 07:58:09;;;;;;;;;;;27.30;99.90;;;;;;5028218;28;19933;-85
2023/06/22 08:00:35;;;;;;;;;;;27.30;99.90;;;;;;5017615;28;19936;-85
2023/06/22 08:03:04;;;;;;;;;;;27.20;99.90;;;;;;5017077;28;19940;-84
2023/06/22 08:05:31;;;;;;;;;;;27.20;99.90;;;;;;5029723;28;19932;-87
2023/06/22 08:07:57;;;;;;;;;;;27.10;99.90;;;;;;5028560;28;19929;-82
2023/06/22 08:10:22;;;;;;;;;;;27.10;99.90;;;;;;5013027;28;19948;-85
2023/06/22 08:12:48;;;;;;;;;;;27.10;99.90;;;;;;5028002;28;19948;-84
2023/06/22 08:15:14;;;;;;;;;;;27.00;99.90;;;;;;4997486;28;19925;-84
2023/06/22 08:17:39;;;;;;;;;;;27.00;99.90;;;;;;5046302;28;20243;-84
2023/06/22 08:20:12;;;;;;;;;;;27.30;99.90;;;;;;5013711;28;19925;-83
2023/06/22 08:22:38;;;;;;;;;;;27.50;99.90;;;;;;5029956;28;19930;-83
2023/06/22 08:25:04;;;;;;;;;;;27.60;99.90;;;;;;5019435;28;19936;-84
2023/06/22 08:27:31;;;;;;;;;;;27.60;99.90;;;;;;5021568;28;19925;-84
2023/06/22 08:29:58;;;;;;;;;;;27.60;99.90;;;;;;5024284;28;20543;-87
2023/06/22 08:32:26;;;;;;;;;;;27.60;99.90;;;;;;5030617;28;19929;-85
2023/06/22 08:34:52;;;;;;;;;;;27.50;99.90;;;;;;5032088;28;19933;-84
2023/06/22 08:37:18;;;;;;;;;;;27.60;99.90;;;;;;5031154;28;19929;-84
2023/06/22 08:39:44;;;;;;;;;;;27.50;99.90;;;;;;5036891;28;19976;-85
2023/06/22 08:42:09;;;;;;;;;;;27.50;99.90;;;;;;5006255;28;19929;-82
2023/06/22 08:44:35;;;;;;;;;;;27.50;99.90;;;;;;5028901;28;19938;-83
2023/06/22 08:47:00;;;;;;;;;;;27.40;99.90;;;;;;5016419;28;20000;-83
2023/06/22 08:49:26;;;;;;;;;;;27.60;99.90;;;;;;5026149;28;19925;-83
2023/06/22 08:51:53;;;;;;;;;;;27.90;99.90;;;;;;5000446;28;19929;-84
2023/06/22 08:54:19;;;;;;;;;;;28.00;99.90;;;;;;5017085;28;19933;-83
2023/06/22 08:56:44;;;;;;;;;;;28.00;99.90;;;;;;5027567;28;19944;-86
2023/06/22 08:59:10;;;;;;;;;;;27.90;98.30;;;;;;5030541;28;19992;-84
2023/06/22 09:01:36;;;;;;;;;;;27.80;98.80;;;;;;5039739;28;19929;-85
2023/06/22 09:04:01;;;;;;;;;;;27.80;99.90;;;;;;5039573;28;19948;-84
2023/06/22 09:06:27;;;;;;;;;;;27.90;99.90;;;;;;5019844;28;19933;-83
2023/06/22 09:08:52;;;;;;;;;;;28.10;99.90;;;;;;5038873;28;19929;-82
2023/06/22 09:11:18;;;;;;;;;;;28.20;99.60;;;;;;5017903;28;19932;-83
2023/06/22 09:13:44;;;;;;;;;;;28.20;97.80;;;;;;5039638;28;19932;-82
2023/06/22 09:16:10;;;;;;;;;;;28.20;99.20;;;;;;5024785;28;19925;-85
2023/06/22 09:18:36;;;;;;;;;;;28.20;99.10;;;;;;5022575;28;20400;-84
2023/06/22 09:21:01;;;;;;;;;;;28.10;97.60;;;;;;5042771;28;19933;-83
2023/06/22 09:23:27;;;;;;;;;;;28.10;98.00;;;;;;5038041;28;20031;-84
2023/06/22 09:25:52;;;;;;;;;;;28.20;98.50;;;;;;5040661;28;19936;-83
2023/06/22 09:28:18;;;;;;;;;;;28.10;97.10;;;;;;5042029;28;20632;-83
2023/06/22 09:30:44;;;;;;;;;;;28.30;98.70;;;;;;5033870;28;19962;-81
2023/06/22 09:33:10;;;;;;;;;;;28.50;95.80;;;;;;5036323;28;19933;-84
2023/06/22 09:35:35;;;;;;;;;;;28.70;97.20;;;;;;5038808;28;19975;-84
2023/06/22 09:38:01;;;;;;;;;;;28.80;96.70;;;;;;5037533;28;19931;-83
2023/06/22 09:40:26;;;;;;;;;;;28.70;96.30;;;;;;5039346;28;19932;-83
2023/06/22 09:42:52;;;;;;;;;;;28.50;96.20;;;;;;5019811;28;19926;-84
2023/06/22 09:45:17;;;;;;;;;;;28.50;98.20;;;;;;5017558;28;19929;-84
2023/06/22 09:47:43;;;;;;;;;;;28.70;96.40;;;;;;5034591;28;19936;-83
2023/06/22 09:50:09;;;;;;;;;;;28.70;96.50;;;;;;5038781;28;19980;-82
2023/06/22 09:52:34;;;;;;;;;;;28.90;95.30;;;;;;5004252;28;19926;-83
2023/06/22 09:55:00;;;;;;;;;;;29.00;95.50;;;;;;5037894;28;19929;-83
2023/06/22 09:57:26;;;;;;;;;;;29.10;93.50;;;;;;5012498;28;20012;-83
2023/06/22 09:59:51;;;;;;;;;;;29.30;96.00;;;;;;5020493;28;19934;-83
2023/06/22 10:02:17;;;;;;;;;;;29.20;93.20;;;;;;5022159;28;19936;-83
2023/06/22 10:04:42;;;;;;;;;;;28.90;92.50;;;;;;5034046;28;19926;-83
2023/06/22 10:07:08;;;;;;;;;;;28.50;94.00;;;;;;5018717;28;19925;-82
2023/06/22 10:09:34;;;;;;;;;;;28.30;94.70;;;;;;5036063;28;19932;-83
2023/06/22 10:11:59;;;;;;;;;;;28.20;94.20;;;;;;5020770;28;19929;-83
2023/06/22 10:14:25;;;;;;;;;;;28.20;93.80;;;;;;5020468;28;20286;-83
2023/06/22 10:16:51;;;;;;;;;;;28.30;94.60;;;;;;5039031;28;19929;-82
2023/06/22 10:19:17;;;;;;;;;;;28.40;94.60;;;;;;5039538;28;19931;-81
2023/06/22 10:21:42;;;;;;;;;;;28.60;93.00;;;;;;5038298;28;20008;-82
2023/06/22 10:24:09;;;;;;;;;;;28.70;94.30;;;;;;5035749;28;20461;-83
2023/06/22 10:26:35;;;;;;;;;;;28.70;94.30;;;;;;5022607;28;19972;-83
2023/06/22 10:29:04;;;;;;;;;;;28.70;93.20;;;;;;5032815;28;19932;-82
2023/06/22 10:31:29;;;;;;;;;;;28.70;93.20;;;;;;5005803;28;20383;-83
2023/06/22 10:33:56;;;;;;;;;;;28.50;92.00;;;;;;5040899;28;19932;-82
2023/06/22 10:36:22;;;;;;;;;;;28.40;93.90;;;;;;5027211;28;19929;-82
2023/06/22 10:38:47;;;;;;;;;;;28.40;93.90;;;;;;5038955;28;19974;-83
2023/06/22 10:41:13;;;;;;;;;;;28.30;92.00;;;;;;5033849;28;19925;-82
2023/06/22 10:43:39;;;;;;;;;;;28.40;93.20;;;;;;5034279;28;20039;-84
2023/06/22 10:46:04;;;;;;;;;;;28.40;94.40;;;;;;5038160;28;19932;-82
2023/06/22 10:48:30;;;;;;;;;;;28.40;93.90;;;;;;5036448;28;19929;-84
2023/06/22 10:50:55;;;;;;;;;;;28.20;92.90;;;;;;5033223;28;19926;-85
2023/06/22 10:53:21;;;;;;;;;;;28.20;94.40;;;;;;5036551;28;19936;-82
2023/06/22 10:55:47;;;;;;;;;;;28.00;92.90;;;;;;5031990;28;19931;-82
2023/06/22 10:58:12;;;;;;;;;;;28.00;92.80;;;;;;5029222;28;19925;-82
2023/06/22 11:00:38;;;;;;;;;;;27.90;92.90;;;;;;5038769;28;19925;-84
2023/06/22 11:03:04;;;;;;;;;;;27.90;93.40;;;;;;5042045;28;19929;-84
2023/06/22 11:05:29;;;;;;;;;;;27.90;93.20;;;;;;5040345;28;19925;-83
2023/06/22 11:07:55;;;;;;;;;;;27.90;93.30;;;;;;5041043;28;19991;-84
2023/06/22 11:10:20;;;;;;;;;;;27.80;92.80;;;;;;5034618;28;19925;-85
2023/06/22 11:12:46;;;;;;;;;;;27.60;93.10;;;;;;5041036;28;19936;-84
2023/06/22 11:15:11;;;;;;;;;;;27.50;93.50;;;;;;5036294;28;19929;-82
2023/06/22 11:17:37;;;;;;;;;;;27.30;93.60;;;;;;5039144;28;19979;-83
2023/06/22 11:20:09;;;;;;;;;;;27.30;94.10;;;;;;5021160;28;19929;-83
2023/06/22 11:22:35;;;;;;;;;;;27.30;94.30;;;;;;5034803;28;19925;-84
2023/06/22 11:25:01;;;;;;;;;;;27.20;94.80;;;;;;5020649;28;19948;-82
2023/06/22 11:27:26;;;;;;;;;;;27.10;93.10;;;;;;5039119;28;19955;-83
2023/06/22 11:29:52;;;;;;;;;;;27.10;94.60;;;;;;5024140;28;19933;-83
2023/06/22 11:32:19;;;;;;;;;;;26.90;94.10;;;;;;5023119;28;19925;-84
2023/06/22 11:34:44;;;;;;;;;;;26.80;94.70;;;;;;5040045;28;19941;-83
2023/06/22 11:37:10;;;;;;;;;;;26.70;95.10;;;;;;5019315;28;19936;-84
2023/06/22 11:39:35;;;;;;;;;;;26.70;95.80;;;;;;5039484;28;19948;-81
2023/06/22 11:42:01;;;;;;;;;;;26.70;95.30;;;;;;5040858;28;19939;-82
2023/06/22 11:44:26;;;;;;;;;;;26.70;96.00;;;;;;5038575;28;19944;-84
2023/06/22 11:46:54;;;;;;;;;;;26.60;95.10;;;;;;5022407;28;20418;-84
2023/06/22 11:49:19;;;;;;;;;;;26.50;95.60;;;;;;5038812;28;19989;-83
2023/06/22 11:51:45;;;;;;;;;;;26.50;95.60;;;;;;5040609;28;20380;-83
2023/06/22 11:54:10;;;;;;;;;;;26.50;96.20;;;;;;5040115;28;20091;-84
2023/06/22 11:56:36;;;;;;;;;;;26.60;95.80;;;;;;5016065;28;20012;-83
2023/06/22 11:59:02;;;;;;;;;;;26.70;96.50;;;;;;4997815;28;20435;-83
2023/06/22 12:01:27;;;;;;;;;;;26.80;96.50;;;;;;5037584;28;19925;-83
2023/06/22 12:03:53;;;;;;;;;;;26.90;96.30;;;;;;5022988;28;19979;-84
2023/06/22 12:06:18;;;;;;;;;;;26.90;95.30;;;;;;5034528;28;20349;-84
2023/06/22 12:08:44;;;;;;;;;;;27.00;96.60;;;;;;5037014;28;20000;-82
2023/06/22 12:11:09;;;;;;;;;;;27.10;96.10;;;;;;5029710;28;19976;-83
2023/06/22 12:13:35;;;;;;;;;;;27.10;95.50;;;;;;5038348;28;19925;-84
2023/06/22 12:16:01;;;;;;;;;;;27.10;95.10;;;;;;5027533;28;19955;-83
2023/06/22 12:18:26;;;;;;;;;;;27.10;95.20;;;;;;5036314;28;19929;-84
2023/06/22 12:20:52;;;;;;;;;;;27.00;95.50;;;;;;5017211;28;19951;-84
2023/06/22 12:23:17;;;;;;;;;;;27.00;95.60;;;;;;5027401;28;19996;-83
2023/06/22 12:25:44;;;;;;;;;;;27.00;95.40;;;;;;5027671;28;19925;-84
2023/06/22 12:28:10;;;;;;;;;;;26.80;95.40;;;;;;5038932;28;19983;-84
2023/06/22 12:30:35;;;;;;;;;;;26.60;95.60;;;;;;5020725;28;19925;-84
2023/06/22 12:33:01;;;;;;;;;;;26.60;95.40;;;;;;5009800;28;19933;-84
2023/06/22 12:35:26;;;;;;;;;;;26.70;96.00;;;;;;4996812;28;19957;-83
2023/06/22 12:37:52;;;;;;;;;;;26.60;96.40;;;;;;5004585;28;19975;-83
2023/06/22 12:40:18;;;;;;;;;;;26.60;96.10;;;;;;5000137;28;20459;-84
2023/06/22 12:42:44;;;;;;;;;;;26.50;96.90;;;;;;4999241;28;19926;-85
2023/06/22 12:45:10;;;;;;;;;;;26.40;96.50;;;;;;4999667;28;19933;-84
2023/06/22 12:47:36;;;;;;;;;;;26.40;96.90;;;;;;4987350;28;19930;-84
2023/06/22 12:50:01;;;;;;;;;;;26.30;96.60;;;;;;5002265;28;19952;-84
2023/06/22 12:52:27;;;;;;;;;;;26.20;97.40;;;;;;5002514;28;19926;-84
2023/06/22 12:54:54;;;;;;;;;;;26.10;97.80;;;;;;4987917;28;20016;-84
2023/06/22 12:57:19;;;;;;;;;;;26.00;97.20;;;;;;5002194;28;19982;-85
2023/06/22 12:59:45;;;;;;;;;;;25.90;97.80;;;;;;5002361;28;19936;-84
2023/06/22 13:02:10;;;;;;;;;;;25.90;98.40;;;;;;4986397;28;19933;-84
2023/06/22 13:04:36;;;;;;;;;;;25.80;98.20;;;;;;5002576;28;19964;-84
2023/06/22 13:07:02;;;;;;;;;;;25.80;98.60;;;;;;4987403;28;19934;-84
2023/06/22 13:09:27;;;;;;;;;;;25.80;98.90;;;;;;5002365;28;20373;-85
2023/06/22 13:11:53;;;;;;;;;;;25.80;97.10;;;;;;5003753;28;19930;-84
2023/06/22 13:14:19;;;;;;;;;;;25.70;97.90;;;;;;4984910;28;19926;-84
2023/06/22 13:16:44;;;;;;;;;;;25.60;98.90;;;;;;5017371;28;19933;-85
2023/06/22 13:19:10;;;;;;;;;;;25.60;97.80;;;;;;5002993;28;19932;-85
2023/06/22 13:21:35;;;;;;;;;;;25.50;98.30;;;;;;4987357;28;19957;-85
2023/06/22 13:24:01;;;;;;;;;;;25.50;99.10;;;;;;4965581;28;19965;-85
2023/06/22 13:26:28;;;;;;;;;;;25.50;99.00;;;;;;5002132;28;20379;-86
2023/06/22 13:28:54;;;;;;;;;;;25.50;98.90;;;;;;5015644;28;19933;-86
2023/06/22 13:31:19;;;;;;;;;;;25.40;98.80;;;;;;4999775;28;19929;-86
2023/06/22 13:33:47;;;;;;;;;;;25.40;99.10;;;;;;5002526;28;19925;-84
2023/06/22 13:36:13;;;;;;;;;;;25.40;99.80;;;;;;5001071;28;19932;-85
2023/06/22 13:38:39;;;;;;;;;;;25.30;99.20;;;;;;4986582;28;19996;-86
2023/06/22 13:41:05;;;;;;;;;;;25.30;99.40;;;;;;4997161;28;19971;-84
2023/06/22 13:43:30;;;;;;;;;;;25.30;99.50;;;;;;4985974;28;19926;-83
2023/06/22 13:45:56;;;;;;;;;;;25.30;99.90;;;;;;5001252;28;20053;-84
2023/06/22 13:48:23;;;;;;;;;;;25.30;99.90;;;;;;5001332;28;19934;-84
2023/06/22 13:50:49;;;;;;;;;;;25.30;99.90;;;;;;5001928;28;19953;-82
2023/06/22 13:53:14;;;;;;;;;;;25.20;99.90;;;;;;5000944;28;19926;-84
2023/06/22 13:55:40;;;;;;;;;;;25.20;99.90;;;;;;4996061;28;20663;-85
2023/06/22 13:58:06;;;;;;;;;;;25.10;99.90;;;;;;4984278;28;19933;-84
2023/06/22 14:00:32;;;;;;;;;;;25.10;99.90;;;;;;5001811;28;19930;-85
2023/06/22 14:02:57;;;;;;;;;;;25.00;99.90;;;;;;5002782;28;19936;-85
2023/06/22 14:05:23;;;;;;;;;;;25.00;99.90;;;;;;5000156;28;19961;-85
2023/06/22 14:07:48;;;;;;;;;;;24.90;99.80;;;;;;5003008;28;20008;-86
2023/06/22 14:10:14;;;;;;;;;;;24.90;99.30;;;;;;4984833;28;19933;-85
2023/06/22 14:12:40;;;;;;;;;;;24.80;99.90;;;;;;4994371;28;19973;-87
2023/06/22 14:15:05;;;;;;;;;;;24.70;99.90;;;;;;4982819;28;19937;-86